createdAt,value
2023-07-10T00:00:39.052Z,73.95
2023-07-10T00:03:09.532Z,73.73
2023-07-10T00:05:36.071Z,74.05
2023-07-10T00:08:02.554Z,73.89
2023-07-10T00:10:30.687Z,73.68
2023-07-10T00:12:57.164Z,73.40
2023-07-10T00:15:24.595Z,74.20
2023-07-10T00:17:52.218Z,73.43
2023-07-10T00:20:20.629Z,72.75
2023-07-10T00:22:47.179Z,72.69
2023-07-10T00:25:16.512Z,72.29
2023-07-10T00:27:46.963Z,72.33
2023-07-10T00:30:18.377Z,72.39
2023-07-10T00:32:45.811Z,72.64
2023-07-10T00:35:18.213Z,72.81
2023-07-10T00:37:50.818Z,72.72
2023-07-10T00:40:21.717Z,72.10
2023-07-10T00:42:48.475Z,71.14
2023-07-10T00:45:16.351Z,70.79
2023-07-10T00:47:43.998Z,71.24
2023-07-10T00:50:14.672Z,71.26
2023-07-10T00:52:43.620Z,71.15
2023-07-10T00:55:22.145Z,71.47
2023-07-10T00:57:51.514Z,72.25
2023-07-10T01:00:20.798Z,72.43
2023-07-10T01:02:47.785Z,72.75
2023-07-10T01:05:15.239Z,73.49
2023-07-10T01:07:44.168Z,74.59
2023-07-10T01:10:11.935Z,75.24
2023-07-10T01:12:39.891Z,75.32
2023-07-10T01:15:07.392Z,75.14
2023-07-10T01:17:34.068Z,75.01
2023-07-10T01:20:06.926Z,75.22
2023-07-10T01:22:33.477Z,75.21
2023-07-10T01:25:00.517Z,75.65
2023-07-10T01:27:29.535Z,75.77
2023-07-10T01:29:59.300Z,75.77
2023-07-10T01:32:28.775Z,76.17
2023-07-10T01:34:58.011Z,76.70
2023-07-10T01:37:24.447Z,76.43
2023-07-10T01:39:52.306Z,76.68
2023-07-10T01:42:18.840Z,76.70
2023-07-10T01:44:46.730Z,77.30
2023-07-10T01:47:16.662Z,77.50
2023-07-10T01:49:48.838Z,77.76
2023-07-10T01:52:16.523Z,77.82
2023-07-10T01:54:45.810Z,77.96
2023-07-10T01:57:13.025Z,78.24
2023-07-10T01:59:39.513Z,78.29
2023-07-10T02:02:06.055Z,78.52
2023-07-10T02:04:32.584Z,78.73
2023-07-10T02:06:59.000Z,78.86
2023-07-10T02:09:29.430Z,78.85
2023-07-10T02:11:56.302Z,78.73
2023-07-10T02:14:23.113Z,78.84
2023-07-10T02:16:50.029Z,79.08
2023-07-10T02:19:17.446Z,79.13
2023-07-10T02:21:43.834Z,79.22
2023-07-10T02:24:10.506Z,79.78
2023-07-10T02:26:36.839Z,79.59
2023-07-10T02:29:03.891Z,80.01
2023-07-10T02:31:30.514Z,80.45
2023-07-10T02:33:57.065Z,80.56
2023-07-10T02:36:23.823Z,80.63
2023-07-10T02:38:50.484Z,80.92
2023-07-10T02:41:16.914Z,81.34
2023-07-10T02:43:43.273Z,81.79
2023-07-10T02:46:09.662Z,82.01
2023-07-10T02:48:36.067Z,82.05
2023-07-10T02:51:02.524Z,82.44
2023-07-10T02:53:28.920Z,82.28
2023-07-10T02:55:55.308Z,82.50
2023-07-10T02:58:21.651Z,82.65
2023-07-10T03:00:58.410Z,83.08
2023-07-10T03:03:25.375Z,82.89
2023-07-10T03:05:56.135Z,83.20
2023-07-10T03:08:22.756Z,83.43
2023-07-10T03:10:49.210Z,83.71
2023-07-10T03:13:15.552Z,83.90
2023-07-10T03:15:41.968Z,83.85
2023-07-10T03:18:08.370Z,83.78
2023-07-10T03:20:34.720Z,84.08
2023-07-10T03:23:01.115Z,84.01
2023-07-10T03:25:27.431Z,84.13
2023-07-10T03:27:53.923Z,84.09
2023-07-10T03:30:20.462Z,84.17
2023-07-10T03:32:46.951Z,84.22
2023-07-10T03:35:13.476Z,83.95
2023-07-10T03:37:39.843Z,83.61
2023-07-10T03:40:06.699Z,83.70
2023-07-10T03:42:33.049Z,83.93
2023-07-10T03:44:59.580Z,83.89
2023-07-10T03:47:25.912Z,83.77
2023-07-10T03:49:52.521Z,83.65
2023-07-10T03:52:18.820Z,83.81
2023-07-10T03:54:45.249Z,83.63
2023-07-10T03:57:11.579Z,83.66
2023-07-10T03:59:40.086Z,83.73
2023-07-10T04:02:06.493Z,83.78
2023-07-10T04:04:32.906Z,83.55
2023-07-10T04:06:59.292Z,83.41
2023-07-10T04:09:25.658Z,83.45
2023-07-10T04:11:55.014Z,83.32
2023-07-10T04:14:21.476Z,83.40
2023-07-10T04:16:50.426Z,83.38
2023-07-10T04:19:16.880Z,83.50
2023-07-10T04:21:45.478Z,83.83
2023-07-10T04:24:11.975Z,83.81
2023-07-10T04:26:38.347Z,84.61
2023-07-10T04:29:05.673Z,84.69
2023-07-10T04:31:32.477Z,84.90
2023-07-10T04:33:59.392Z,84.92
2023-07-10T04:36:26.188Z,84.82
2023-07-10T04:38:52.806Z,84.48
2023-07-10T04:41:22.241Z,84.83
2023-07-10T04:43:49.036Z,84.63
2023-07-10T04:46:16.542Z,84.48
2023-07-10T04:48:44.173Z,84.46
2023-07-10T04:51:12.124Z,84.45
2023-07-10T04:53:38.726Z,84.68
2023-07-10T04:56:06.600Z,84.50
2023-07-10T04:58:53.554Z,84.42
2023-07-10T05:01:21.196Z,84.31
2023-07-10T05:03:47.625Z,84.35
2023-07-10T05:06:14.289Z,84.45
2023-07-10T05:08:40.691Z,84.52
2023-07-10T05:11:07.211Z,84.24
2023-07-10T05:13:33.706Z,84.43
2023-07-10T05:16:00.892Z,84.21
2023-07-10T05:18:28.048Z,84.03
2023-07-10T05:20:54.570Z,83.63
2023-07-10T05:23:21.007Z,83.58
2023-07-10T05:25:56.176Z,82.95
2023-07-10T05:28:22.712Z,82.94
2023-07-10T05:30:49.069Z,81.87
2023-07-10T05:33:18.347Z,81.51
2023-07-10T05:35:51.832Z,81.46
2023-07-10T05:38:18.215Z,81.32
2023-07-10T05:40:44.613Z,80.66
2023-07-10T05:43:11.057Z,80.13
2023-07-10T05:45:37.456Z,80.16
2023-07-10T05:48:03.933Z,79.30
2023-07-10T05:50:30.307Z,79.24
2023-07-10T05:52:56.675Z,78.97
2023-07-10T05:55:23.218Z,79.06
2023-07-10T05:57:49.597Z,78.17
2023-07-10T06:00:16.296Z,76.95
2023-07-10T06:02:42.673Z,76.68
2023-07-10T06:05:09.186Z,76.24
2023-07-10T06:07:35.556Z,75.02
2023-07-10T06:10:02.097Z,73.63
2023-07-10T06:12:28.489Z,74.13
2023-07-10T06:14:54.886Z,71.83
2023-07-10T06:17:21.230Z,70.03
2023-07-10T06:19:47.573Z,68.62
2023-07-10T06:22:14.127Z,68.55
2023-07-10T06:24:40.803Z,67.71
2023-07-10T06:27:07.724Z,65.88
2023-07-10T06:29:37.500Z,65.62
2023-07-10T06:32:04.506Z,65.34
2023-07-10T06:34:30.914Z,63.96
2023-07-10T06:36:57.293Z,62.59
2023-07-10T06:39:27.372Z,59.86
2023-07-10T06:41:54.878Z,61.64
2023-07-10T06:44:21.762Z,58.52
2023-07-10T06:46:48.190Z,58.98
2023-07-10T06:49:14.609Z,58.98
2023-07-10T06:51:40.999Z,59.11
2023-07-10T06:54:07.497Z,59.59
2023-07-10T06:56:34.080Z,58.71
2023-07-10T06:59:00.566Z,57.97
2023-07-10T07:01:26.999Z,57.63
2023-07-10T07:03:53.454Z,58.54
2023-07-10T07:06:19.907Z,58.62
2023-07-10T07:08:50.295Z,57.54
2023-07-10T07:11:16.652Z,58.10
2023-07-10T07:13:43.013Z,56.64
2023-07-10T07:16:10.072Z,57.11
2023-07-10T07:18:36.572Z,56.46
2023-07-10T07:21:04.641Z,55.53
2023-07-10T07:23:31.071Z,55.48
2023-07-10T07:25:57.797Z,55.10
2023-07-10T07:28:24.370Z,54.32
2023-07-10T07:30:50.812Z,52.11
2023-07-10T07:33:18.178Z,52.83
2023-07-10T07:35:44.632Z,52.01
2023-07-10T07:38:10.977Z,51.48
2023-07-10T07:40:37.540Z,49.95
2023-07-10T07:43:04.046Z,48.78
2023-07-10T07:45:30.654Z,48.71
2023-07-10T07:47:57.141Z,48.73
2023-07-10T07:50:23.657Z,49.78
2023-07-10T07:52:50.078Z,49.71
2023-07-10T07:55:16.482Z,49.76
2023-07-10T07:57:43.397Z,49.03
2023-07-10T08:00:11.245Z,47.58
2023-07-10T08:02:37.646Z,47.34
2023-07-10T08:05:08.742Z,46.99
2023-07-10T08:07:37.607Z,45.35
2023-07-10T08:10:05.104Z,46.34
2023-07-10T08:12:31.489Z,45.98
2023-07-10T08:14:57.907Z,46.18
2023-07-10T08:17:27.151Z,45.46
2023-07-10T08:19:53.760Z,45.56
2023-07-10T08:22:20.293Z,45.38
2023-07-10T08:24:46.677Z,45.19
2023-07-10T08:27:13.049Z,45.47
2023-07-10T08:29:39.515Z,45.83
2023-07-10T08:32:06.294Z,43.71
2023-07-10T08:34:32.681Z,44.47
2023-07-10T08:37:00.256Z,44.25
2023-07-10T08:39:26.842Z,42.76
2023-07-10T08:41:55.245Z,42.94
2023-07-10T08:44:27.233Z,42.84
2023-07-10T08:46:53.727Z,42.60
2023-07-10T08:49:22.997Z,42.59
2023-07-10T08:51:49.348Z,42.55
2023-07-10T08:54:19.565Z,42.61
2023-07-10T08:56:55.044Z,42.13
2023-07-10T08:59:27.420Z,41.48
2023-07-10T09:01:55.272Z,41.54
2023-07-10T09:04:22.545Z,41.74
2023-07-10T09:06:51.040Z,40.38
2023-07-10T09:09:46.930Z,41.57
2023-07-10T09:12:16.105Z,41.27
2023-07-10T09:14:47.229Z,39.01
2023-07-10T09:17:20.539Z,39.28
2023-07-10T09:19:50.145Z,37.77
2023-07-10T09:22:16.573Z,36.32
2023-07-10T09:24:43.012Z,36.06
2023-07-10T09:27:13.749Z,37.31
2023-07-10T09:29:40.159Z,37.67
2023-07-10T09:32:12.090Z,35.47
2023-07-10T09:34:42.020Z,36.17
2023-07-10T09:37:12.051Z,36.35
2023-07-10T09:39:38.617Z,37.30
2023-07-10T09:42:05.861Z,37.22
2023-07-10T09:44:40.403Z,36.77
2023-07-10T09:47:11.500Z,37.68
2023-07-10T09:49:43.022Z,37.73
2023-07-10T09:52:30.533Z,37.17
2023-07-10T09:55:09.438Z,36.31
2023-07-10T09:57:50.872Z,35.19
2023-07-10T10:00:18.330Z,34.95
2023-07-10T10:02:49.226Z,34.88
2023-07-10T10:05:17.620Z,34.11
2023-07-10T10:07:51.354Z,33.92
2023-07-10T10:10:31.594Z,32.72
2023-07-10T10:13:02.303Z,33.68
2023-07-10T10:15:47.103Z,34.16
2023-07-10T10:18:19.335Z,33.58
2023-07-10T10:20:46.724Z,33.78
2023-07-10T10:23:29.405Z,34.22
2023-07-10T10:25:59.288Z,32.80
2023-07-10T10:28:31.052Z,34.07
2023-07-10T10:31:03.071Z,34.17
2023-07-10T10:33:39.152Z,33.68
2023-07-10T10:36:22.698Z,33.78
2023-07-10T10:38:51.829Z,34.02
2023-07-10T10:41:21.322Z,34.34
2023-07-10T10:43:50.710Z,34.51
2023-07-10T10:46:33.864Z,34.80
2023-07-10T10:49:19.036Z,34.80
2023-07-10T10:51:55.212Z,34.61
2023-07-10T10:54:33.745Z,34.58
2023-07-10T10:57:13.074Z,34.51
2023-07-10T11:00:08.576Z,34.34
2023-07-10T11:02:54.910Z,34.25
2023-07-10T11:05:21.605Z,34.71
2023-07-10T11:07:51.603Z,34.70
2023-07-10T11:10:23.112Z,33.96
2023-07-10T11:12:49.602Z,32.59
2023-07-10T11:15:17.356Z,33.10
2023-07-10T11:17:45.389Z,32.84
2023-07-10T11:20:14.774Z,33.19
2023-07-10T11:22:49.172Z,33.42
2023-07-10T11:25:29.111Z,34.26
2023-07-10T11:27:55.504Z,34.67
2023-07-10T11:30:30.808Z,35.06
2023-07-10T11:33:05.987Z,35.27
2023-07-10T11:35:33.503Z,35.69
2023-07-10T11:38:02.640Z,35.98
2023-07-10T11:40:29.098Z,36.85
2023-07-10T11:42:56.016Z,37.04
2023-07-10T11:45:32.523Z,36.74
2023-07-10T11:47:59.035Z,37.34
2023-07-10T11:50:26.893Z,37.54
2023-07-10T11:53:07.445Z,36.56
2023-07-10T11:55:41.927Z,35.86
2023-07-10T11:58:29.760Z,35.99
2023-07-10T12:01:05.527Z,36.03
2023-07-10T12:03:38.521Z,35.02
2023-07-10T12:06:14.608Z,34.89
2023-07-10T12:08:41.100Z,35.36
2023-07-10T12:11:25.489Z,33.83
2023-07-10T12:13:51.998Z,34.77
2023-07-10T12:16:26.839Z,35.13
2023-07-10T12:19:04.397Z,32.59
2023-07-10T12:21:31.646Z,32.53
2023-07-10T12:24:02.270Z,33.29
2023-07-10T12:27:14.851Z,33.13
2023-07-10T12:29:15.797Z,33.38
2023-07-10T12:31:42.991Z,32.73
2023-07-10T12:34:18.212Z,31.86
2023-07-10T12:36:44.814Z,32.31
2023-07-10T12:39:11.802Z,32.47
2023-07-10T12:41:39.225Z,32.05
2023-07-10T12:44:08.503Z,31.54
2023-07-10T12:46:36.116Z,30.59
2023-07-10T12:49:03.285Z,29.83
2023-07-10T12:51:32.456Z,30.07
2023-07-10T12:54:00.802Z,28.16
2023-07-10T12:56:29.038Z,27.25
2023-07-10T12:58:57.140Z,28.32
2023-07-10T13:01:30.428Z,28.42
2023-07-10T13:04:18.730Z,28.99
2023-07-10T13:06:45.430Z,29.65
2023-07-10T13:09:20.288Z,30.47
2023-07-10T13:11:46.695Z,30.13
2023-07-10T13:14:27.419Z,29.08
2023-07-10T13:16:55.615Z,28.78
2023-07-10T13:19:22.056Z,28.53
2023-07-10T13:21:48.692Z,27.15
2023-07-10T13:24:15.136Z,26.34
2023-07-10T13:26:44.169Z,26.70
2023-07-10T13:29:12.043Z,26.83
2023-07-10T13:31:38.450Z,27.30
2023-07-10T13:34:04.940Z,27.82
2023-07-10T13:36:31.292Z,28.00
2023-07-10T13:38:57.634Z,28.29
2023-07-10T13:41:25.003Z,28.78
2023-07-10T13:43:53.884Z,28.93
2023-07-10T13:46:25.117Z,29.34
2023-07-10T13:48:52.479Z,28.85
2023-07-10T13:51:19.693Z,28.78
2023-07-10T13:53:46.125Z,29.20
2023-07-10T13:56:14.085Z,29.18
2023-07-10T13:58:40.509Z,29.21
2023-07-10T14:01:06.945Z,29.29
2023-07-10T14:03:36.661Z,29.36
2023-07-10T14:06:05.188Z,29.17
2023-07-10T14:08:31.812Z,29.61
2023-07-10T14:10:59.073Z,28.84
2023-07-10T14:13:26.150Z,28.84
2023-07-10T14:15:55.033Z,29.14
2023-07-10T14:18:26.576Z,29.34
2023-07-10T14:20:53.073Z,29.16
2023-07-10T14:23:20.987Z,29.42
2023-07-10T14:25:47.728Z,28.96
2023-07-10T14:28:15.301Z,29.25
2023-07-10T14:30:43.927Z,29.16
2023-07-10T14:33:11.232Z,28.93
2023-07-10T14:35:38.464Z,29.26
2023-07-10T14:38:34.168Z,29.00
2023-07-10T14:41:00.532Z,29.06
2023-07-10T14:43:27.539Z,28.60
2023-07-10T14:45:56.253Z,28.36
2023-07-10T14:48:25.125Z,28.63
2023-07-10T14:50:51.784Z,28.74
2023-07-10T14:53:19.844Z,29.10
2023-07-10T14:55:48.088Z,29.10
2023-07-10T14:58:19.232Z,29.03
2023-07-10T15:00:49.323Z,29.24
2023-07-10T15:03:16.270Z,28.97
2023-07-10T15:05:47.757Z,29.07
2023-07-10T15:08:23.256Z,29.48
2023-07-10T15:10:49.703Z,29.30
2023-07-10T15:13:17.583Z,29.18
2023-07-10T15:15:44.101Z,29.22
2023-07-10T15:18:14.445Z,29.08
2023-07-10T15:20:42.230Z,29.15
2023-07-10T15:23:22.108Z,29.30
2023-07-10T15:25:49.041Z,28.83
2023-07-10T15:28:15.765Z,28.98
2023-07-10T15:30:42.237Z,28.56
2023-07-10T15:33:12.566Z,28.62
2023-07-10T15:35:39.107Z,28.82
2023-07-10T15:38:06.647Z,29.16
2023-07-10T15:40:35.011Z,29.35
2023-07-10T15:43:02.018Z,29.67
2023-07-10T15:45:32.556Z,29.76
2023-07-10T15:48:00.061Z,29.66
2023-07-10T15:50:27.377Z,29.57
2023-07-10T15:52:54.491Z,29.10
2023-07-10T15:55:28.160Z,29.29
2023-07-10T15:57:55.505Z,29.61
2023-07-10T16:00:23.165Z,29.85
2023-07-10T16:02:50.343Z,29.90
2023-07-10T16:05:21.894Z,29.50
2023-07-10T16:07:49.170Z,29.50
2023-07-10T16:10:15.700Z,29.56
2023-07-10T16:12:42.893Z,29.59
2023-07-10T16:15:16.424Z,29.67
2023-07-10T16:17:45.550Z,29.75
2023-07-10T16:20:19.870Z,29.70
2023-07-10T16:23:05.823Z,30.20
2023-07-10T16:25:32.607Z,30.17
2023-07-10T16:27:58.980Z,30.36
2023-07-10T16:30:26.381Z,30.46
2023-07-10T16:32:53.068Z,30.30
2023-07-10T16:35:20.798Z,30.62
2023-07-10T16:37:47.395Z,29.97
2023-07-10T16:40:24.532Z,30.26
2023-07-10T16:42:53.059Z,30.21
2023-07-10T16:45:19.465Z,30.40
2023-07-10T16:47:46.090Z,30.55
2023-07-10T16:50:17.800Z,30.42
2023-07-10T16:52:45.065Z,30.76
2023-07-10T16:55:29.507Z,30.54
2023-07-10T16:57:58.978Z,30.69
2023-07-10T17:00:29.969Z,31.24
2023-07-10T17:02:58.239Z,30.70
2023-07-10T17:05:25.140Z,30.79
2023-07-10T17:07:51.535Z,30.68
2023-07-10T17:10:18.238Z,30.58
2023-07-10T17:12:45.520Z,30.61
2023-07-10T17:15:15.355Z,31.07
2023-07-10T17:17:42.173Z,30.80
2023-07-10T17:20:13.460Z,31.14
2023-07-10T17:22:39.953Z,31.19
2023-07-10T17:25:17.229Z,31.02
2023-07-10T17:27:44.256Z,30.86
2023-07-10T17:30:14.704Z,31.17
2023-07-10T17:32:41.383Z,31.26
2023-07-10T17:35:14.986Z,31.30
2023-07-10T17:37:43.959Z,31.41
2023-07-10T17:40:14.728Z,32.00
2023-07-10T17:42:41.736Z,32.37
2023-07-10T17:45:15.442Z,32.43
2023-07-10T17:47:41.925Z,31.92
2023-07-10T17:50:11.876Z,32.05
2023-07-10T17:52:38.196Z,32.37
2023-07-10T17:55:04.787Z,32.46
2023-07-10T17:57:31.214Z,32.32
2023-07-10T17:59:57.776Z,32.38
2023-07-10T18:02:28.354Z,32.45
2023-07-10T18:04:54.715Z,32.62
2023-07-10T18:07:21.178Z,32.33
2023-07-10T18:09:47.578Z,32.66
2023-07-10T18:12:15.838Z,32.30
2023-07-10T18:14:43.036Z,32.69
2023-07-10T18:17:14.063Z,32.64
2023-07-10T18:19:42.262Z,32.80
2023-07-10T18:22:11.837Z,33.11
2023-07-10T18:24:38.159Z,32.86
2023-07-10T18:27:05.003Z,33.32
2023-07-10T18:29:31.482Z,33.42
2023-07-10T18:31:58.031Z,33.72
2023-07-10T18:34:24.550Z,33.52
2023-07-10T18:36:51.252Z,33.66
2023-07-10T18:39:17.774Z,33.98
2023-07-10T18:41:44.426Z,33.57
2023-07-10T18:44:14.739Z,33.64
2023-07-10T18:46:41.399Z,34.38
2023-07-10T18:49:16.452Z,34.46
2023-07-10T18:51:43.608Z,34.48
2023-07-10T18:54:12.772Z,34.41
2023-07-10T18:56:39.696Z,34.46
2023-07-10T18:59:14.704Z,35.00
2023-07-10T19:01:42.706Z,34.92
2023-07-10T19:04:11.822Z,35.29
2023-07-10T19:06:41.467Z,35.62
2023-07-10T19:09:20.783Z,36.24
2023-07-10T19:11:48.349Z,36.09
2023-07-10T19:14:16.181Z,36.53
2023-07-10T19:16:43.092Z,36.75
2023-07-10T19:19:15.016Z,37.05
2023-07-10T19:21:41.733Z,36.94
2023-07-10T19:24:28.452Z,37.04
2023-07-10T19:26:55.027Z,37.49
2023-07-10T19:29:21.792Z,37.81
2023-07-10T19:31:59.029Z,37.75
2023-07-10T19:34:25.991Z,37.67
2023-07-10T19:36:52.732Z,37.69
2023-07-10T19:39:20.390Z,38.16
2023-07-10T19:41:47.352Z,38.59
2023-07-10T19:44:16.208Z,38.63
2023-07-10T19:46:42.833Z,38.92
2023-07-10T19:49:13.346Z,39.34
2023-07-10T19:51:39.977Z,39.20
2023-07-10T19:54:19.429Z,39.82
2023-07-10T19:56:46.104Z,39.92
2023-07-10T19:59:20.816Z,40.28
2023-07-10T20:01:51.194Z,40.98
2023-07-10T20:04:17.753Z,40.99
2023-07-10T20:06:45.598Z,41.21
2023-07-10T20:09:16.800Z,41.33
2023-07-10T20:11:43.616Z,41.31
2023-07-10T20:14:14.257Z,41.21
2023-07-10T20:16:40.966Z,41.07
2023-07-10T20:19:20.960Z,41.14
2023-07-10T20:21:48.610Z,41.06
2023-07-10T20:24:16.142Z,41.06
2023-07-10T20:26:43.122Z,41.45
2023-07-10T20:29:12.811Z,41.35
2023-07-10T20:31:39.289Z,41.26
2023-07-10T20:34:11.581Z,41.50
2023-07-10T20:36:38.962Z,41.42
2023-07-10T20:39:10.871Z,41.86
2023-07-10T20:41:38.362Z,41.75
2023-07-10T20:44:19.325Z,41.65
2023-07-10T20:46:48.783Z,41.96
2023-07-10T20:49:17.051Z,41.98
2023-07-10T20:51:43.527Z,41.91
2023-07-10T20:54:11.164Z,42.03
2023-07-10T20:56:37.718Z,42.56
2023-07-10T20:59:06.070Z,42.66
2023-07-10T21:01:32.582Z,42.78
2023-07-10T21:03:59.046Z,43.39
2023-07-10T21:06:34.416Z,43.64
2023-07-10T21:09:01.583Z,44.18
2023-07-10T21:11:32.088Z,44.51
2023-07-10T21:13:59.217Z,44.44
2023-07-10T21:16:28.538Z,44.31
2023-07-10T21:18:54.950Z,45.05
2023-07-10T21:21:21.406Z,45.23
2023-07-10T21:23:48.448Z,45.33
2023-07-10T21:26:17.417Z,45.00
2023-07-10T21:28:52.510Z,45.24
2023-07-10T21:31:23.802Z,45.85
2023-07-10T21:33:52.389Z,45.95
2023-07-10T21:36:19.204Z,45.89
2023-07-10T21:38:45.942Z,46.36
2023-07-10T21:41:16.808Z,46.57
2023-07-10T21:43:44.138Z,46.78
2023-07-10T21:46:12.567Z,46.65
2023-07-10T21:48:39.090Z,46.59
2023-07-10T21:51:07.166Z,46.43
2023-07-10T21:53:33.578Z,46.24
2023-07-10T21:56:02.500Z,46.52
2023-07-10T21:58:42.267Z,46.48
2023-07-10T22:01:12.684Z,46.30
2023-07-10T22:03:40.536Z,46.55
2023-07-10T22:06:09.255Z,46.63
2023-07-10T22:08:36.665Z,46.40
2023-07-10T22:11:04.070Z,46.31
2023-07-10T22:13:31.748Z,46.38
2023-07-10T22:16:00.274Z,46.45
2023-07-10T22:18:33.850Z,46.92
2023-07-10T22:21:00.659Z,47.04
2023-07-10T22:23:28.415Z,47.28
2023-07-10T22:25:55.369Z,47.42
2023-07-10T22:28:24.501Z,47.72
2023-07-10T22:30:51.806Z,48.41
2023-07-10T22:33:19.070Z,48.23
2023-07-10T22:35:46.336Z,48.72
2023-07-10T22:38:14.712Z,49.02
2023-07-10T22:40:41.902Z,49.00
2023-07-10T22:43:13.077Z,49.56
2023-07-10T22:45:39.969Z,50.44
2023-07-10T22:48:12.985Z,50.73
2023-07-10T22:50:42.591Z,50.73
2023-07-10T22:53:09.371Z,51.04
2023-07-10T22:55:36.314Z,51.04
2023-07-10T22:58:02.771Z,51.53
2023-07-10T23:00:30.488Z,51.93
2023-07-10T23:02:56.885Z,52.11
2023-07-10T23:05:25.700Z,52.33
2023-07-10T23:07:52.144Z,52.70
2023-07-10T23:10:20.033Z,52.65
2023-07-10T23:12:46.851Z,52.69
2023-07-10T23:15:14.096Z,52.82
2023-07-10T23:17:41.214Z,52.80
2023-07-10T23:20:09.166Z,52.85
2023-07-10T23:22:35.602Z,53.32
2023-07-10T23:25:07.448Z,53.63
2023-07-10T23:27:34.205Z,53.40
2023-07-10T23:30:00.701Z,53.84
2023-07-10T23:32:33.752Z,54.32
2023-07-10T23:35:00.681Z,54.26
2023-07-10T23:37:27.989Z,54.19
2023-07-10T23:39:55.160Z,54.39
2023-07-10T23:42:22.212Z,54.54
2023-07-10T23:44:48.642Z,54.61
2023-07-10T23:47:15.113Z,54.92
2023-07-10T23:49:41.549Z,55.24
2023-07-10T23:52:08.013Z,55.31
2023-07-10T23:54:34.433Z,55.45
2023-07-10T23:57:11.697Z,55.84
2023-07-10T23:59:38.606Z,55.73
